Time;durP1;ratioP1;P1;durP2;ratioP2;P2;SDS_P1;SDS_P2;PMS_P1;PMS_P2;Temp;Humidity;BMP_temperature;BMP_pressure;BME280_temperature;BME280_humidity;BME280_pressure;Samples;Min_cycle;Max_cycle;Signal;HPM_P1;HPM_P2
2023/01/01 00:01:20;;;;;;;6.57;4.10;;;;;;;;;;5011036;28;20069;-79
2023/01/01 00:03:51;;;;;;;7.25;3.97;;;;;;;;;;5010880;28;20063;-78
2023/01/01 00:06:18;;;;;;;8.48;3.75;;;;;;;;;;5032436;28;20056;-78
2023/01/01 00:08:44;;;;;;;7.13;4.03;;;;;;;;;;5030818;28;20435;-77
2023/01/01 00:11:10;;;;;;;7.28;3.90;;;;;;;;;;5030177;28;20053;-77
2023/01/01 00:13:38;;;;;;;7.38;3.70;;;;;;;;;;5030579;28;20045;-78
2023/01/01 00:16:05;;;;;;;8.48;3.30;;;;;;;;;;5011778;28;20059;-79
2023/01/01 00:18:32;;;;;;;6.07;3.33;;;;;;;;;;5032408;28;20050;-77
2023/01/01 00:21:06;;;;;;;6.35;3.38;;;;;;;;;;5029577;28;20045;-78
2023/01/01 00:23:33;;;;;;;5.38;2.97;;;;;;;;;;5031803;28;20054;-79
2023/01/01 00:25:59;;;;;;;8.60;3.08;;;;;;;;;;5029699;28;20050;-77
2023/01/01 00:28:26;;;;;;;6.70;3.38;;;;;;;;;;5031287;28;20084;-77
2023/01/01 00:30:53;;;;;;;6.88;2.92;;;;;;;;;;5030367;28;20494;-77
2023/01/01 00:33:19;;;;;;;4.70;2.60;;;;;;;;;;5028843;28;20065;-78
2023/01/01 00:35:45;;;;;;;6.13;2.60;;;;;;;;;;5031722;28;20049;-78
2023/01/01 00:38:12;;;;;;;8.35;3.10;;;;;;;;;;5029793;28;20497;-79
2023/01/01 00:40:38;;;;;;;6.78;2.60;;;;;;;;;;5028942;28;20073;-79
2023/01/01 00:43:05;;;;;;;4.82;2.25;;;;;;;;;;5010238;28;20124;-78
2023/01/01 00:45:31;;;;;;;3.67;2.17;;;;;;;;;;5029818;28;20059;-79
2023/01/01 00:47:58;;;;;;;3.88;2.28;;;;;;;;;;5013976;28;20108;-79
2023/01/01 00:50:24;;;;;;;4.18;2.17;;;;;;;;;;5013824;28;20673;-77
2023/01/01 00:52:51;;;;;;;4.70;2.35;;;;;;;;;;5028981;28;20055;-79
2023/01/01 00:55:17;;;;;;;4.55;2.42;;;;;;;;;;5028036;28;20050;-78
2023/01/01 00:57:43;;;;;;;4.82;2.55;;;;;;;;;;5028880;28;20054;-77
2023/01/01 01:00:10;;;;;;;4.32;2.40;;;;;;;;;;5027950;28;20053;-78
2023/01/01 01:02:37;;;;;;;4.35;2.40;;;;;;;;;;5007120;28;20111;-78
2023/01/01 01:05:04;;;;;;;5.68;2.50;;;;;;;;;;5026563;28;20656;-76
2023/01/01 01:07:36;;;;;;;3.03;1.83;;;;;;;;;;5027900;28;20220;-78
2023/01/01 01:10:02;;;;;;;4.00;1.98;;;;;;;;;;5038861;28;20053;-78
2023/01/01 01:12:29;;;;;;;3.92;2.10;;;;;;;;;;5028434;28;20100;-78
2023/01/01 01:14:55;;;;;;;5.03;2.50;;;;;;;;;;5028308;28;20053;-79
2023/01/01 01:17:22;;;;;;;3.00;1.80;;;;;;;;;;5010549;28;20059;-79
2023/01/01 01:19:48;;;;;;;3.42;2.10;;;;;;;;;;5041651;28;20076;-78
2023/01/01 01:22:15;;;;;;;2.78;1.65;;;;;;;;;;5028973;28;20053;-78
2023/01/01 01:24:41;;;;;;;3.70;2.00;;;;;;;;;;5028430;28;20054;-78
2023/01/01 01:27:07;;;;;;;4.50;2.05;;;;;;;;;;5028176;28;20084;-78
2023/01/01 01:29:34;;;;;;;3.97;2.22;;;;;;;;;;5013435;28;20120;-78
2023/01/01 01:32:00;;;;;;;3.92;2.00;;;;;;;;;;5027675;28;20107;-77
2023/01/01 01:34:27;;;;;;;5.25;2.10;;;;;;;;;;5027362;28;20049;-78
2023/01/01 01:36:54;;;;;;;4.47;1.95;;;;;;;;;;5026589;28;20512;-78
2023/01/01 01:39:21;;;;;;;4.97;2.25;;;;;;;;;;5028959;28;20046;-77
2023/01/01 01:41:48;;;;;;;4.22;1.90;;;;;;;;;;5026773;28;20906;-78
2023/01/01 01:44:33;;;;;;;5.30;1.85;;;;;;;;;;5026796;28;20220;-78
2023/01/01 01:47:00;;;;;;;5.60;1.80;;;;;;;;;;5024514;28;20061;-78
2023/01/01 01:49:29;;;;;;;5.45;2.00;;;;;;;;;;5022701;28;20045;-78
2023/01/01 01:51:55;;;;;;;11.48;2.28;;;;;;;;;;5023019;28;20061;-78
2023/01/01 01:54:25;;;;;;;3.97;2.03;;;;;;;;;;5024867;28;20056;-78
2023/01/01 01:56:56;;;;;;;5.20;2.10;;;;;;;;;;5006599;28;20051;-79
2023/01/01 01:59:24;;;;;;;5.38;1.73;;;;;;;;;;5028787;28;20658;-78
2023/01/01 02:01:52;;;;;;;6.65;2.10;;;;;;;;;;5027442;28;20050;-78
2023/01/01 02:04:18;;;;;;;6.07;2.00;;;;;;;;;;5026380;28;20531;-78
2023/01/01 02:06:45;;;;;;;5.50;2.35;;;;;;;;;;5027839;28;20053;-78
2023/01/01 02:09:12;;;;;;;5.38;2.10;;;;;;;;;;5038039;28;20061;-78
2023/01/01 02:11:38;;;;;;;3.38;1.80;;;;;;;;;;5027402;28;20101;-79
2023/01/01 02:14:05;;;;;;;5.28;2.00;;;;;;;;;;5025724;28;20616;-78
2023/01/01 02:16:38;;;;;;;3.85;2.00;;;;;;;;;;5025993;28;20505;-77
2023/01/01 02:19:04;;;;;;;4.97;2.30;;;;;;;;;;5038814;28;20057;-79
2023/01/01 02:21:42;;;;;;;5.50;2.28;;;;;;;;;;5033230;28;20049;-78
2023/01/01 02:24:18;;;;;;;4.15;2.13;;;;;;;;;;5009794;28;20068;-79
2023/01/01 02:26:48;;;;;;;7.45;2.22;;;;;;;;;;5028687;28;20049;-78
2023/01/01 02:29:14;;;;;;;4.45;1.88;;;;;;;;;;5034726;28;20065;-79
2023/01/01 02:31:45;;;;;;;5.50;2.22;;;;;;;;;;5034467;28;20105;-76
2023/01/01 02:34:13;;;;;;;9.55;1.90;;;;;;;;;;5031026;28;20100;-78
2023/01/01 02:36:43;;;;;;;7.53;2.25;;;;;;;;;;5031985;28;20079;-78
2023/01/01 02:39:09;;;;;;;4.28;2.00;;;;;;;;;;5045443;28;20061;-78
2023/01/01 02:41:38;;;;;;;5.30;1.98;;;;;;;;;;5036370;28;20073;-80
2023/01/01 02:44:05;;;;;;;4.28;1.92;;;;;;;;;;5031825;28;20061;-78
2023/01/01 02:46:32;;;;;;;5.50;2.15;;;;;;;;;;5032533;28;20114;-76
2023/01/01 02:48:58;;;;;;;7.32;2.28;;;;;;;;;;5028722;28;20430;-78
2023/01/01 02:51:59;;;;;;;4.28;1.85;;;;;;;;;;5005635;28;20136;-78
2023/01/01 02:54:45;;;;;;;6.68;2.15;;;;;;;;;;5031641;28;20050;-78
2023/01/01 02:57:14;;;;;;;4.67;2.17;;;;;;;;;;5031511;28;20139;-78
2023/01/01 03:00:30;;;;;;;9.73;2.53;;;;;;;;;;5032314;28;20045;-79
2023/01/01 03:02:59;;;;;;;8.20;1.90;;;;;;;;;;5033104;28;20092;-78
2023/01/01 03:08:40;;;;;;;7.43;1.90;;;;;;;;;;5030931;28;20514;-78
2023/01/01 03:11:08;;;;;;;6.15;1.92;;;;;;;;;;5029920;28;20096;-78
2023/01/01 03:13:53;;;;;;;5.00;2.10;;;;;;;;;;5010543;28;20045;-78
2023/01/01 03:16:22;;;;;;;5.03;1.80;;;;;;;;;;5029777;28;20090;-78
2023/01/01 03:19:09;;;;;;;4.78;2.10;;;;;;;;;;5030540;28;20621;-79
2023/01/01 03:21:57;;;;;;;5.75;2.28;;;;;;;;;;5014505;28;20049;-77
2023/01/01 03:24:32;;;;;;;4.85;2.25;;;;;;;;;;5030609;28;20057;-78
2023/01/01 03:27:07;;;;;;;7.23;2.20;;;;;;;;;;5015421;28;20082;-80
2023/01/01 03:29:37;;;;;;;5.75;2.20;;;;;;;;;;5013369;28;20326;-79
2023/01/01 03:32:04;;;;;;;9.52;2.25;;;;;;;;;;5025904;28;20053;-80
2023/01/01 03:34:42;;;;;;;7.07;2.35;;;;;;;;;;5030937;28;20047;-77
2023/01/01 03:37:11;;;;;;;4.07;2.10;;;;;;;;;;5031826;28;20059;-79
2023/01/01 03:39:45;;;;;;;4.97;2.00;;;;;;;;;;5013776;28;20089;-79
2023/01/01 03:42:16;;;;;;;4.45;2.22;;;;;;;;;;5029820;28;20108;-79
2023/01/01 03:44:45;;;;;;;5.50;2.17;;;;;;;;;;5030651;28;20580;-79
2023/01/01 03:47:12;;;;;;;3.88;2.17;;;;;;;;;;5031654;28;20057;-80
2023/01/01 03:49:38;;;;;;;5.10;2.60;;;;;;;;;;5055193;28;20049;-80
2023/01/01 03:52:25;;;;;;;5.75;2.30;;;;;;;;;;5047116;28;20144;-79
2023/01/01 03:54:51;;;;;;;;;;;;;;;;;;5037940;28;20199;-79
2023/01/01 03:57:25;;;;;;;7.10;1.92;;;;;;;;;;5029101;28;19980;-80
2023/01/01 03:59:54;;;;;;;4.50;2.20;;;;;;;;;;5031405;28;20053;-79
2023/01/01 04:02:25;;;;;;;4.40;2.20;;;;;;;;;;5012770;28;20054;-78
2023/01/01 04:04:52;;;;;;;5.20;2.22;;;;;;;;;;5012830;28;20046;-78
2023/01/01 04:07:19;;;;;;;7.22;2.33;;;;;;;;;;5029207;28;20069;-78
2023/01/01 04:09:48;;;;;;;8.00;2.33;;;;;;;;;;5015841;28;20141;-77
2023/01/01 04:12:15;;;;;;;5.55;2.40;;;;;;;;;;5033128;28;20041;-77
2023/01/01 04:14:42;;;;;;;8.20;2.53;;;;;;;;;;5022037;28;20110;-79
2023/01/01 04:17:09;;;;;;;6.13;2.30;;;;;;;;;;5026203;28;20056;-78
2023/01/01 04:19:36;;;;;;;6.47;2.50;;;;;;;;;;5032219;28;20084;-78
2023/01/01 04:22:02;;;;;;;5.70;2.80;;;;;;;;;;5031702;28;20054;-78
2023/01/01 04:24:29;;;;;;;5.00;2.78;;;;;;;;;;5015241;28;20064;-79
2023/01/01 04:26:55;;;;;;;4.82;2.58;;;;;;;;;;5031406;28;20425;-78
2023/01/01 04:29:22;;;;;;;5.65;2.65;;;;;;;;;;5032337;28;20059;-79
2023/01/01 04:31:48;;;;;;;8.20;2.60;;;;;;;;;;5036473;28;20055;-78
2023/01/01 04:34:15;;;;;;;6.80;2.72;;;;;;;;;;5027609;28;20077;-78
2023/01/01 04:36:41;;;;;;;5.70;2.47;;;;;;;;;;5012273;28;20049;-78
2023/01/01 04:39:08;;;;;;;6.65;2.60;;;;;;;;;;5028855;28;20147;-80
2023/01/01 04:41:34;;;;;;;5.97;2.33;;;;;;;;;;5026675;28;20084;-78
2023/01/01 04:44:01;;;;;;;8.75;2.83;;;;;;;;;;5009641;28;20061;-77
2023/01/01 04:46:27;;;;;;;5.55;2.55;;;;;;;;;;5027348;28;20143;-78
2023/01/01 04:48:53;;;;;;;5.93;2.60;;;;;;;;;;5028171;28;20057;-79
2023/01/01 04:51:20;;;;;;;5.57;2.30;;;;;;;;;;5024870;28;20257;-78
2023/01/01 04:53:46;;;;;;;5.82;2.50;;;;;;;;;;5022964;28;20053;-78
2023/01/01 04:56:14;;;;;;;5.60;2.50;;;;;;;;;;5010804;28;20053;-79
2023/01/01 04:58:41;;;;;;;4.50;2.35;;;;;;;;;;5028599;28;20060;-79
2023/01/01 05:01:13;;;;;;;5.57;2.47;;;;;;;;;;5015541;28;20049;-79
2023/01/01 05:03:39;;;;;;;4.97;2.70;;;;;;;;;;5008923;28;20104;-78
2023/01/01 05:06:07;;;;;;;5.55;2.65;;;;;;;;;;5009091;28;20139;-78
2023/01/01 05:08:34;;;;;;;9.50;2.78;;;;;;;;;;5035534;28;20140;-79
2023/01/01 05:11:05;;;;;;;4.93;2.35;;;;;;;;;;5033672;28;20064;-79
2023/01/01 05:13:33;;;;;;;5.65;2.53;;;;;;;;;;5010942;28;20073;-79
2023/01/01 05:16:07;;;;;;;7.47;2.58;;;;;;;;;;5026693;28;20051;-79
2023/01/01 05:18:34;;;;;;;5.38;2.53;;;;;;;;;;5028091;28;20514;-78
2023/01/01 05:21:01;;;;;;;5.00;2.38;;;;;;;;;;5025947;28;20049;-78
2023/01/01 05:23:28;;;;;;;5.45;2.50;;;;;;;;;;5041887;28;20052;-77
2023/01/01 05:25:54;;;;;;;5.82;2.90;;;;;;;;;;5010554;28;20045;-75
2023/01/01 05:28:22;;;;;;;7.50;2.80;;;;;;;;;;5025939;28;20077;-77
2023/01/01 05:30:49;;;;;;;5.22;2.30;;;;;;;;;;5008174;28;20053;-78
2023/01/01 05:33:15;;;;;;;5.88;2.92;;;;;;;;;;5038576;28;20110;-76
2023/01/01 05:35:42;;;;;;;5.47;2.60;;;;;;;;;;5046550;28;20049;-79
2023/01/01 05:38:08;;;;;;;6.18;2.70;;;;;;;;;;5030796;28;20506;-78
2023/01/01 05:40:37;;;;;;;8.48;2.72;;;;;;;;;;5026880;28;20054;-78
2023/01/01 05:43:04;;;;;;;4.78;2.90;;;;;;;;;;5037884;28;20488;-78
2023/01/01 05:45:31;;;;;;;6.43;2.97;;;;;;;;;;5047789;28;20057;-79
2023/01/01 05:47:57;;;;;;;8.50;2.55;;;;;;;;;;5030719;28;20137;-78
2023/01/01 05:50:24;;;;;;;7.20;3.05;;;;;;;;;;5025986;28;20060;-79
2023/01/01 05:52:50;;;;;;;6.53;2.97;;;;;;;;;;5007892;28;20490;-78
2023/01/01 05:55:16;;;;;;;10.00;3.17;;;;;;;;;;5026117;28;20502;-78
2023/01/01 05:57:43;;;;;;;5.50;2.92;;;;;;;;;;5027487;28;20077;-80
2023/01/01 06:00:09;;;;;;;8.63;3.13;;;;;;;;;;5028015;28;20071;-79
2023/01/01 06:02:36;;;;;;;9.48;3.05;;;;;;;;;;5042722;28;20252;-80
2023/01/01 06:05:03;;;;;;;7.03;3.28;;;;;;;;;;5066594;28;20113;-79
2023/01/01 06:07:29;;;;;;;7.32;3.17;;;;;;;;;;5050167;28;20288;-80
2023/01/01 06:09:55;;;;;;;5.78;3.10;;;;;;;;;;5036018;28;20055;-80
2023/01/01 06:12:22;;;;;;;9.75;3.20;;;;;;;;;;5016246;28;20076;-80
2023/01/01 06:14:48;;;;;;;7.70;3.53;;;;;;;;;;5034056;28;20564;-80
2023/01/01 06:17:15;;;;;;;9.07;3.08;;;;;;;;;;5032435;28;20049;-80
2023/01/01 06:19:41;;;;;;;7.28;3.33;;;;;;;;;;5015086;28;20049;-80
2023/01/01 06:22:08;;;;;;;8.52;3.85;;;;;;;;;;5032160;28;20069;-80
2023/01/01 06:24:34;;;;;;;10.95;3.97;;;;;;;;;;5031926;28;20053;-80
2023/01/01 06:27:05;;;;;;;7.32;3.78;;;;;;;;;;5030903;28;20061;-79
2023/01/01 06:29:32;;;;;;;9.32;3.92;;;;;;;;;;5033463;28;20053;-78
2023/01/01 06:31:58;;;;;;;8.15;3.65;;;;;;;;;;5031776;28;20075;-78
2023/01/01 06:34:25;;;;;;;6.75;3.92;;;;;;;;;;5013668;28;20084;-79
2023/01/01 06:36:51;;;;;;;9.68;3.97;;;;;;;;;;5031684;28;20044;-79
2023/01/01 06:39:18;;;;;;;8.60;4.00;;;;;;;;;;5032889;28;20065;-79
2023/01/01 06:41:44;;;;;;;8.18;3.80;;;;;;;;;;5032366;28;20061;-78
2023/01/01 06:44:10;;;;;;;7.68;3.67;;;;;;;;;;5033015;28;20588;-79
2023/01/01 06:46:37;;;;;;;7.28;3.85;;;;;;;;;;5014726;28;20160;-79
2023/01/01 06:49:05;;;;;;;10.15;4.25;;;;;;;;;;5033055;28;20057;-79
2023/01/01 06:51:33;;;;;;;8.57;4.35;;;;;;;;;;5032319;28;20061;-79
2023/01/01 06:54:00;;;;;;;10.80;4.25;;;;;;;;;;5032855;28;20065;-79
2023/01/01 06:56:27;;;;;;;8.00;3.92;;;;;;;;;;5034646;28;20080;-80
2023/01/01 06:58:53;;;;;;;7.97;4.00;;;;;;;;;;5035333;28;20502;-78
2023/01/01 07:01:21;;;;;;;7.82;4.13;;;;;;;;;;5015773;28;20302;-78
2023/01/01 07:03:52;;;;;;;8.68;4.32;;;;;;;;;;5011637;28;20788;-78
2023/01/01 07:06:19;;;;;;;7.25;3.63;;;;;;;;;;5012836;28;20542;-78
2023/01/01 07:08:45;;;;;;;12.02;3.92;;;;;;;;;;5030878;28;20148;-79
2023/01/01 07:11:12;;;;;;;9.57;4.03;;;;;;;;;;5032225;28;20148;-78
2023/01/01 07:13:38;;;;;;;7.65;3.75;;;;;;;;;;5034392;28;20069;-78
2023/01/01 07:16:05;;;;;;;12.15;4.15;;;;;;;;;;5032783;28;20057;-78
2023/01/01 07:18:38;;;;;;;9.48;4.03;;;;;;;;;;5027124;28;20046;-78
2023/01/01 07:21:05;;;;;;;9.27;4.10;;;;;;;;;;5029694;28;20057;-78
2023/01/01 07:23:32;;;;;;;7.28;3.60;;;;;;;;;;5010668;28;20049;-78
2023/01/01 07:25:59;;;;;;;8.23;3.75;;;;;;;;;;5030411;28;20068;-77
2023/01/01 07:28:26;;;;;;;8.88;3.95;;;;;;;;;;5031746;28;20049;-78
2023/01/01 07:30:53;;;;;;;8.25;3.85;;;;;;;;;;5030707;28;20132;-79
2023/01/01 07:33:20;;;;;;;8.55;4.10;;;;;;;;;;5029014;28;20053;-78
2023/01/01 07:35:47;;;;;;;9.93;4.05;;;;;;;;;;5031053;28;20068;-78
2023/01/01 07:38:13;;;;;;;10.68;4.15;;;;;;;;;;5031790;28;20045;-79
2023/01/01 07:40:40;;;;;;;10.00;3.53;;;;;;;;;;5030642;28;20045;-79
2023/01/01 07:43:07;;;;;;;9.23;4.10;;;;;;;;;;5030584;28;20370;-79
2023/01/01 07:45:33;;;;;;;8.88;3.60;;;;;;;;;;5011983;28;20058;-77
2023/01/01 07:48:00;;;;;;;7.78;3.53;;;;;;;;;;5029372;28;20148;-78
2023/01/01 07:50:28;;;;;;;6.18;3.28;;;;;;;;;;5027849;28;20110;-79
2023/01/01 07:52:55;;;;;;;12.52;3.88;;;;;;;;;;5033894;28;20049;-78
2023/01/01 07:55:23;;;;;;;8.52;3.47;;;;;;;;;;5030109;28;20113;-80
2023/01/01 07:57:49;;;;;;;9.02;4.00;;;;;;;;;;5032138;28;20167;-78
2023/01/01 08:00:17;;;;;;;6.82;3.60;;;;;;;;;;5029142;28;20045;-79
2023/01/01 08:02:44;;;;;;;9.10;3.20;;;;;;;;;;5038933;28;20141;-79
2023/01/01 08:05:10;;;;;;;6.22;3.20;;;;;;;;;;5022292;28;20057;-80
2023/01/01 08:07:37;;;;;;;8.25;3.15;;;;;;;;;;5029898;28;20049;-78
2023/01/01 08:10:04;;;;;;;8.07;3.55;;;;;;;;;;5027057;28;20053;-78
2023/01/01 08:12:31;;;;;;;6.57;2.90;;;;;;;;;;5026622;28;20417;-78
2023/01/01 08:14:57;;;;;;;6.85;3.35;;;;;;;;;;5026549;28;20071;-78
2023/01/01 08:17:24;;;;;;;6.22;2.97;;;;;;;;;;5027507;28;20181;-78
2023/01/01 08:19:51;;;;;;;8.38;3.03;;;;;;;;;;5036325;28;20169;-77
2023/01/01 08:22:18;;;;;;;6.43;3.53;;;;;;;;;;5045710;28;20501;-79
2023/01/01 08:24:44;;;;;;;7.45;2.90;;;;;;;;;;5011271;28;20057;-78
2023/01/01 08:27:14;;;;;;;6.32;2.97;;;;;;;;;;5029405;28;20058;-78
2023/01/01 08:29:41;;;;;;;9.43;3.10;;;;;;;;;;5010242;28;20091;-78
2023/01/01 08:32:08;;;;;;;8.50;3.08;;;;;;;;;;5023164;28;20060;-78
2023/01/01 08:34:34;;;;;;;14.88;3.25;;;;;;;;;;5023597;28;20053;-78
2023/01/01 08:37:00;;;;;;;5.50;2.80;;;;;;;;;;5023729;28;20048;-78
2023/01/01 08:39:27;;;;;;;7.15;2.97;;;;;;;;;;5015466;28;20076;-78
2023/01/01 08:41:53;;;;;;;6.82;3.28;;;;;;;;;;5024084;28;20045;-77
2023/01/01 08:44:20;;;;;;;10.13;3.05;;;;;;;;;;5024628;28;20161;-78
2023/01/01 08:46:46;;;;;;;6.00;2.67;;;;;;;;;;5024913;28;20053;-78
2023/01/01 08:49:12;;;;;;;7.50;2.75;;;;;;;;;;5031042;28;20057;-78
2023/01/01 08:51:39;;;;;;;9.98;3.13;;;;;;;;;;5024625;28;20054;-72
2023/01/01 08:54:06;;;;;;;7.68;2.80;;;;;;;;;;5024115;28;20137;-78
2023/01/01 08:56:32;;;;;;;8.38;2.83;;;;;;;;;;5025509;28;20518;-78
2023/01/01 08:58:59;;;;;;;7.63;2.88;;;;;;;;;;5026831;28;20049;-78
2023/01/01 09:01:30;;;;;;;7.50;2.72;;;;;;;;;;5026409;28;20052;-79
2023/01/01 09:03:56;;;;;;;5.65;2.95;;;;;;;;;;5025930;28;20060;-77
2023/01/01 09:06:23;;;;;;;6.65;2.90;;;;;;;;;;5027514;28;20053;-80
2023/01/01 09:08:50;;;;;;;9.50;3.20;;;;;;;;;;5027934;28;20084;-79
2023/01/01 09:11:24;;;;;;;5.72;2.70;;;;;;;;;;5025825;28;20052;-76
2023/01/01 09:13:50;;;;;;;8.93;2.83;;;;;;;;;;5025355;28;20203;-78
2023/01/01 09:16:17;;;;;;;8.32;3.20;;;;;;;;;;5029563;28;20046;-79
2023/01/01 09:18:43;;;;;;;6.28;2.72;;;;;;;;;;5030662;28;20045;-79
2023/01/01 09:21:10;;;;;;;8.68;3.10;;;;;;;;;;5029752;28;20050;-78
2023/01/01 09:23:36;;;;;;;5.50;2.83;;;;;;;;;;5026856;28;20566;-79
2023/01/01 09:26:03;;;;;;;6.07;2.75;;;;;;;;;;5026064;28;20061;-78
2023/01/01 09:28:30;;;;;;;5.88;2.67;;;;;;;;;;5027452;28;20541;-79
2023/01/01 09:30:56;;;;;;;4.63;2.47;;;;;;;;;;5026584;28;20810;-78
2023/01/01 09:33:23;;;;;;;8.50;2.58;;;;;;;;;;5024477;28;20065;-77
2023/01/01 09:35:49;;;;;;;11.05;3.17;;;;;;;;;;5023853;28;20113;-78
2023/01/01 09:38:15;;;;;;;6.53;2.42;;;;;;;;;;5007512;28;20049;-79
2023/01/01 09:40:45;;;;;;;8.90;2.67;;;;;;;;;;5027357;28;20055;-76
2023/01/01 09:43:35;;;;;;;5.90;2.40;;;;;;;;;;5031441;28;20049;-81
2023/01/01 09:46:03;;;;;;;6.70;2.53;;;;;;;;;;5030255;28;20068;-80
2023/01/01 09:48:30;;;;;;;7.80;2.45;;;;;;;;;;5032772;28;20826;-78
2023/01/01 09:50:57;;;;;;;5.75;2.40;;;;;;;;;;5028380;28;20187;-77
2023/01/01 09:53:32;;;;;;;8.73;2.20;;;;;;;;;;5032840;28;20680;-78
2023/01/01 09:56:00;;;;;;;8.38;2.72;;;;;;;;;;5014167;28;20161;-77
2023/01/01 09:58:27;;;;;;;10.15;2.50;;;;;;;;;;5022301;28;20048;-80
2023/01/01 10:00:57;;;;;;;6.53;2.22;;;;;;;;;;5035769;28;20995;-79
2023/01/01 10:03:33;;;;;;;7.72;2.60;;;;;;;;;;5035944;28;20106;-80
2023/01/01 10:05:59;;;;;;;7.40;2.65;;;;;;;;;;5035691;28;20103;-80
2023/01/01 10:08:26;;;;;;;7.05;2.40;;;;;;;;;;5035977;28;20046;-81
2023/01/01 10:10:59;;;;;;;5.35;2.08;;;;;;;;;;5034380;28;20063;-80
2023/01/01 10:13:35;;;;;;;5.95;2.22;;;;;;;;;;5035905;28;20544;-81
2023/01/01 10:16:14;;;;;;;7.13;2.50;;;;;;;;;;5034821;28;20629;-81
2023/01/01 10:18:50;;;;;;;5.35;2.30;;;;;;;;;;5035492;28;20382;-80
2023/01/01 10:21:28;;;;;;;10.88;2.67;;;;;;;;;;5036302;28;20498;-80
2023/01/01 10:23:58;;;;;;;6.03;2.47;;;;;;;;;;5035050;28;20045;-81
2023/01/01 10:26:26;;;;;;;6.15;2.10;;;;;;;;;;5035336;28;20528;-81
2023/01/01 10:29:07;;;;;;;7.72;2.60;;;;;;;;;;5036725;28;20847;-82
2023/01/01 10:31:35;;;;;;;6.38;2.08;;;;;;;;;;5033157;28;20057;-79
2023/01/01 10:34:05;;;;;;;6.15;2.22;;;;;;;;;;5018499;28;20057;-78
2023/01/01 10:36:32;;;;;;;6.70;2.22;;;;;;;;;;5030204;28;20060;-77
2023/01/01 10:38:58;;;;;;;7.75;2.42;;;;;;;;;;5030657;28;20084;-79
2023/01/01 10:41:24;;;;;;;7.32;2.17;;;;;;;;;;5030174;28;20059;-81
2023/01/01 10:43:51;;;;;;;8.05;2.10;;;;;;;;;;5010132;28;20060;-79
2023/01/01 10:46:20;;;;;;;9.23;2.50;;;;;;;;;;5030034;28;20049;-79
2023/01/01 10:49:07;;;;;;;9.93;2.30;;;;;;;;;;5033265;28;20535;-79
2023/01/01 10:51:35;;;;;;;4.18;2.03;;;;;;;;;;5036767;28;20048;-80
2023/01/01 10:54:02;;;;;;;5.20;2.20;;;;;;;;;;5028954;28;20065;-84
2023/01/01 10:56:37;;;;;;;9.85;2.50;;;;;;;;;;5029024;28;20056;-82
2023/01/01 10:59:06;;;;;;;;;;;;;;;;;;5031899;28;20077;-80
2023/01/01 11:01:32;;;;;;;8.40;2.38;;;;;;;;;;5032046;28;19932;-80
2023/01/01 11:03:59;;;;;;;7.28;2.10;;;;;;;;;;5013426;28;20565;-80
2023/01/01 11:06:27;;;;;;;7.03;2.35;;;;;;;;;;5014208;28;20053;-79
2023/01/01 11:08:54;;;;;;;6.03;2.25;;;;;;;;;;5031984;28;20080;-79
2023/01/01 11:11:28;;;;;;;6.38;2.08;;;;;;;;;;5013610;28;20056;-80
2023/01/01 11:13:57;;;;;;;8.63;2.58;;;;;;;;;;5029136;28;20053;-78
2023/01/01 11:16:24;;;;;;;10.80;2.15;;;;;;;;;;5030122;28;20046;-81
2023/01/01 11:18:51;;;;;;;9.63;2.22;;;;;;;;;;5015049;28;20069;-81
2023/01/01 11:21:21;;;;;;;7.82;1.88;;;;;;;;;;5030472;28;20056;-79
2023/01/01 11:23:48;;;;;;;9.57;2.20;;;;;;;;;;5028472;28;20048;-81
2023/01/01 11:26:15;;;;;;;9.85;2.13;;;;;;;;;;5030194;28;20057;-81
2023/01/01 11:28:41;;;;;;;5.97;2.00;;;;;;;;;;5030818;28;20350;-81
2023/01/01 11:31:10;;;;;;;6.95;1.70;;;;;;;;;;5030392;28;20061;-80
2023/01/01 11:33:41;;;;;;;8.02;1.80;;;;;;;;;;5009580;28;20049;-81
2023/01/01 11:36:08;;;;;;;7.68;2.22;;;;;;;;;;5030364;28;20081;-80
2023/01/01 11:38:34;;;;;;;7.05;1.90;;;;;;;;;;5033649;28;20053;-81
2023/01/01 11:41:05;;;;;;;8.15;2.00;;;;;;;;;;5030274;28;20045;-81
2023/01/01 11:43:40;;;;;;;8.13;2.03;;;;;;;;;;5032639;28;20065;-81
2023/01/01 11:46:07;;;;;;;10.93;2.17;;;;;;;;;;5029156;28;20438;-80
2023/01/01 11:48:35;;;;;;;9.88;2.03;;;;;;;;;;5024055;28;20062;-81
2023/01/01 11:51:06;;;;;;;5.07;2.30;;;;;;;;;;5029540;28;20128;-79
2023/01/01 11:53:34;;;;;;;9.32;1.88;;;;;;;;;;5028309;28;20113;-80
2023/01/01 11:56:17;;;;;;;5.22;1.92;;;;;;;;;;5028494;28;20041;-80
2023/01/01 11:58:49;;;;;;;7.25;2.15;;;;;;;;;;5033952;28;20401;-81
2023/01/01 12:01:22;;;;;;;7.47;2.00;;;;;;;;;;5026319;28;20057;-82
2023/01/01 12:04:01;;;;;;;7.57;2.03;;;;;;;;;;5025915;28;20069;-82
2023/01/01 12:06:37;;;;;;;6.93;1.88;;;;;;;;;;5026914;28;20163;-80
2023/01/01 12:09:04;;;;;;;7.75;1.90;;;;;;;;;;5027266;28;20053;-80
2023/01/01 12:11:34;;;;;;;12.00;2.67;;;;;;;;;;5028888;28;20064;-80
2023/01/01 12:14:06;;;;;;;9.75;2.33;;;;;;;;;;5021184;28;20076;-80
2023/01/01 12:16:53;;;;;;;7.28;2.03;;;;;;;;;;5013427;28;20050;-78
2023/01/01 12:19:25;;;;;;;6.00;2.13;;;;;;;;;;5012946;28;20132;-79
2023/01/01 12:21:54;;;;;;;8.43;1.92;;;;;;;;;;5011132;28;20045;-79
2023/01/01 12:24:20;;;;;;;10.00;2.17;;;;;;;;;;5028709;28;20045;-80
2023/01/01 12:27:05;;;;;;;8.85;2.30;;;;;;;;;;5028351;28;20148;-80
2023/01/01 12:29:36;;;;;;;8.27;2.10;;;;;;;;;;5029565;28;20414;-83
2023/01/01 12:32:02;;;;;;;9.38;2.08;;;;;;;;;;5033618;28;20516;-82
2023/01/01 12:34:29;;;;;;;6.72;1.98;;;;;;;;;;5033870;28;20577;-79
2023/01/01 12:37:18;;;;;;;7.43;2.00;;;;;;;;;;5035725;28;20049;-82
2023/01/01 12:40:00;;;;;;;5.68;1.65;;;;;;;;;;5034460;28;20056;-79
2023/01/01 12:42:29;;;;;;;7.22;2.53;;;;;;;;;;5035003;28;20073;-77
2023/01/01 12:45:11;;;;;;;9.68;1.95;;;;;;;;;;5039704;28;20053;-79
2023/01/01 12:47:37;;;;;;;6.78;2.00;;;;;;;;;;5033687;28;20187;-80
2023/01/01 12:50:04;;;;;;;11.23;2.00;;;;;;;;;;5028473;28;20056;-78
2023/01/01 12:52:37;;;;;;;6.80;1.70;;;;;;;;;;5030095;28;20153;-79
2023/01/01 12:55:19;;;;;;;7.63;1.67;;;;;;;;;;5028062;28;20627;-80
2023/01/01 12:57:48;;;;;;;12.60;2.30;;;;;;;;;;5026972;28;20095;-79
2023/01/01 13:00:15;;;;;;;7.90;2.30;;;;;;;;;;5029241;28;20071;-80
2023/01/01 13:02:55;;;;;;;7.38;2.15;;;;;;;;;;5026586;28;20052;-79
2023/01/01 13:05:24;;;;;;;5.45;1.90;;;;;;;;;;5009324;28;20041;-79
2023/01/01 13:07:53;;;;;;;10.35;1.92;;;;;;;;;;5028970;28;20125;-78
2023/01/01 13:10:19;;;;;;;7.28;1.80;;;;;;;;;;5019203;28;20156;-79
2023/01/01 13:12:46;;;;;;;8.43;1.75;;;;;;;;;;5008789;28;20061;-80
2023/01/01 13:15:31;;;;;;;6.95;2.38;;;;;;;;;;5023265;28;20083;-79
2023/01/01 13:17:58;;;;;;;5.18;1.60;;;;;;;;;;5028894;28;20045;-79
2023/01/01 13:20:25;;;;;;;6.63;1.65;;;;;;;;;;5034386;28;20327;-80
2023/01/01 13:22:51;;;;;;;7.28;2.22;;;;;;;;;;5048565;28;20053;-80
2023/01/01 13:25:20;;;;;;;8.20;2.03;;;;;;;;;;5039529;28;20049;-80
2023/01/01 13:27:55;;;;;;;;;;;;;;;;;;;;;
2023/01/01 13:30:34;;;;;;;6.93;2.08;;;;;;;;;;5029001;28;20081;-79
2023/01/01 13:33:22;;;;;;;9.13;1.98;;;;;;;;;;5026122;28;20414;-78
2023/01/01 13:36:07;;;;;;;9.02;2.22;;;;;;;;;;5028389;28;20458;-79
2023/01/01 13:38:52;;;;;;;10.43;2.00;;;;;;;;;;5031040;28;20053;-80
2023/01/01 13:41:34;;;;;;;5.80;2.00;;;;;;;;;;5040207;28;20424;-79
2023/01/01 13:44:01;;;;;;;8.43;1.95;;;;;;;;;;5047334;28;20056;-80
2023/01/01 13:46:28;;;;;;;7.43;1.88;;;;;;;;;;5012198;28;20061;-79
2023/01/01 13:49:18;;;;;;;11.20;2.00;;;;;;;;;;5028739;28;20052;-79
2023/01/01 13:51:51;;;;;;;6.00;1.92;;;;;;;;;;5013213;28;20063;-80
2023/01/01 13:54:34;;;;;;;4.85;1.83;;;;;;;;;;5030232;28;20061;-79
2023/01/01 13:57:13;;;;;;;8.05;2.22;;;;;;;;;;5029401;28;20148;-81
2023/01/01 13:59:45;;;;;;;6.43;2.20;;;;;;;;;;5030002;28;20437;-82
2023/01/01 14:02:29;;;;;;;10.88;1.90;;;;;;;;;;5030003;28;20045;-82
2023/01/01 14:05:08;;;;;;;7.93;1.98;;;;;;;;;;5028590;28;20060;-81
2023/01/01 14:08:04;;;;;;;8.07;2.20;;;;;;;;;;5011483;28;20079;-80
2023/01/01 14:10:38;;;;;;;11.00;2.35;;;;;;;;;;5020020;28;20057;-79
2023/01/01 14:13:04;;;;;;;8.07;2.15;;;;;;;;;;5028860;28;20057;-80
2023/01/01 14:15:32;;;;;;;8.85;2.22;;;;;;;;;;5031204;28;20103;-79
2023/01/01 14:18:00;;;;;;;9.93;2.30;;;;;;;;;;5027657;28;20136;-80
2023/01/01 14:20:31;;;;;;;10.25;2.08;;;;;;;;;;5032148;28;20576;-81
2023/01/01 14:23:00;;;;;;;10.65;1.90;;;;;;;;;;5034607;28;20145;-79
2023/01/01 14:25:27;;;;;;;9.25;1.98;;;;;;;;;;5026018;28;20441;-80
2023/01/01 14:27:55;;;;;;;9.82;2.40;;;;;;;;;;5037855;28;20084;-80
2023/01/01 14:30:22;;;;;;;6.22;2.05;;;;;;;;;;5033505;28;20059;-79
2023/01/01 14:32:55;;;;;;;6.70;2.08;;;;;;;;;;5016467;28;20049;-79
2023/01/01 14:35:21;;;;;;;10.95;2.35;;;;;;;;;;5036261;28;20163;-80
2023/01/01 14:37:47;;;;;;;14.55;2.30;;;;;;;;;;5033045;28;20538;-81
2023/01/01 14:40:16;;;;;;;6.57;1.92;;;;;;;;;;5029645;28;20428;-80
2023/01/01 14:42:44;;;;;;;12.68;2.75;;;;;;;;;;5039323;28;20046;-80
2023/01/01 14:45:17;;;;;;;8.85;2.05;;;;;;;;;;5035446;28;20056;-80
2023/01/01 14:47:48;;;;;;;9.80;2.33;;;;;;;;;;5039830;28;20053;-80
2023/01/01 14:50:18;;;;;;;8.32;2.00;;;;;;;;;;5029412;28;20274;-79
2023/01/01 14:52:48;;;;;;;10.63;2.10;;;;;;;;;;5029031;28;20088;-80
2023/01/01 14:55:16;;;;;;;10.85;2.13;;;;;;;;;;5030682;28;20049;-81
2023/01/01 14:57:45;;;;;;;6.63;2.05;;;;;;;;;;5031366;28;20068;-80
2023/01/01 15:00:32;;;;;;;5.68;1.85;;;;;;;;;;5033279;28;20051;-80